sensor_id;sensor_type;location;lat;lon;timestamp;P1;durP1;ratioP1;P2;durP2;ratioP2
9248;SDS011;4660;41.768;26.198;2024-03-29T00:01:30;41.97;;;10.10;;
9248;SDS011;4660;41.768;26.198;2024-03-29T00:03:56;41.13;;;7.73;;
9248;SDS011;4660;41.768;26.198;2024-03-29T00:06:22;32.90;;;8.63;;
9248;SDS011;4660;41.768;26.198;2024-03-29T00:08:47;42.00;;;8.53;;
9248;SDS011;4660;41.768;26.198;2024-03-29T00:11:13;28.00;;;7.63;;
9248;SDS011;4660;41.768;26.198;2024-03-29T00:13:39;38.13;;;7.43;;
9248;SDS011;4660;41.768;26.198;2024-03-29T00:16:04;44.33;;;8.90;;
9248;SDS011;4660;41.768;26.198;2024-03-29T00:18:30;38.87;;;8.00;;
9248;SDS011;4660;41.768;26.198;2024-03-29T00:20:55;42.03;;;8.37;;
9248;SDS011;4660;41.768;26.198;2024-03-29T00:23:21;50.13;;;8.60;;
9248;SDS011;4660;41.768;26.198;2024-03-29T00:25:47;42.23;;;7.77;;
9248;SDS011;4660;41.768;26.198;2024-03-29T00:28:12;32.70;;;8.13;;
9248;SDS011;4660;41.768;26.198;2024-03-29T00:30:38;35.23;;;7.63;;
9248;SDS011;4660;41.768;26.198;2024-03-29T00:33:03;37.80;;;8.17;;
9248;SDS011;4660;41.768;26.198;2024-03-29T00:35:29;31.97;;;9.07;;
9248;SDS011;4660;41.768;26.198;2024-03-29T00:37:56;39.70;;;10.30;;
9248;SDS011;4660;41.768;26.198;2024-03-29T00:40:21;33.23;;;8.20;;
9248;SDS011;4660;41.768;26.198;2024-03-29T00:42:47;30.87;;;8.10;;
9248;SDS011;4660;41.768;26.198;2024-03-29T00:45:12;40.23;;;9.13;;
9248;SDS011;4660;41.768;26.198;2024-03-29T00:47:38;44.03;;;8.40;;
9248;SDS011;4660;41.768;26.198;2024-03-29T00:50:04;33.43;;;8.50;;
9248;SDS011;4660;41.768;26.198;2024-03-29T00:52:29;47.30;;;9.50;;
9248;SDS011;4660;41.768;26.198;2024-03-29T00:54:55;39.93;;;9.10;;
9248;SDS011;4660;41.768;26.198;2024-03-29T00:57:20;36.63;;;7.57;;
9248;SDS011;4660;41.768;26.198;2024-03-29T00:59:46;35.97;;;8.23;;
9248;SDS011;4660;41.768;26.198;2024-03-29T01:02:11;39.23;;;9.07;;
9248;SDS011;4660;41.768;26.198;2024-03-29T01:04:37;38.37;;;7.97;;
9248;SDS011;4660;41.768;26.198;2024-03-29T01:07:05;37.40;;;7.90;;
9248;SDS011;4660;41.768;26.198;2024-03-29T01:09:30;38.20;;;8.67;;
9248;SDS011;4660;41.768;26.198;2024-03-29T01:11:56;38.63;;;7.87;;
9248;SDS011;4660;41.768;26.198;2024-03-29T01:14:21;32.67;;;7.50;;
9248;SDS011;4660;41.768;26.198;2024-03-29T01:16:47;35.33;;;10.17;;
9248;SDS011;4660;41.768;26.198;2024-03-29T01:19:12;35.77;;;9.73;;
9248;SDS011;4660;41.768;26.198;2024-03-29T01:21:38;40.97;;;12.30;;
9248;SDS011;4660;41.768;26.198;2024-03-29T01:24:03;37.80;;;7.97;;
9248;SDS011;4660;41.768;26.198;2024-03-29T01:26:30;33.03;;;7.90;;
9248;SDS011;4660;41.768;26.198;2024-03-29T01:28:56;30.17;;;7.13;;
9248;SDS011;4660;41.768;26.198;2024-03-29T01:31:24;33.90;;;7.30;;
9248;SDS011;4660;41.768;26.198;2024-03-29T01:33:50;32.40;;;6.67;;
9248;SDS011;4660;41.768;26.198;2024-03-29T01:36:15;29.70;;;6.03;;
9248;SDS011;4660;41.768;26.198;2024-03-29T01:38:41;33.60;;;7.13;;
9248;SDS011;4660;41.768;26.198;2024-03-29T01:41:07;33.13;;;8.37;;
9248;SDS011;4660;41.768;26.198;2024-03-29T01:43:32;32.53;;;7.57;;
9248;SDS011;4660;41.768;26.198;2024-03-29T01:45:58;30.83;;;7.17;;
9248;SDS011;4660;41.768;26.198;2024-03-29T01:48:24;36.37;;;6.87;;
9248;SDS011;4660;41.768;26.198;2024-03-29T01:50:50;36.40;;;8.63;;
9248;SDS011;4660;41.768;26.198;2024-03-29T01:53:18;34.40;;;7.27;;
9248;SDS011;4660;41.768;26.198;2024-03-29T01:55:45;31.63;;;7.53;;
9248;SDS011;4660;41.768;26.198;2024-03-29T01:58:11;34.33;;;7.37;;
9248;SDS011;4660;41.768;26.198;2024-03-29T02:00:41;35.03;;;7.40;;
9248;SDS011;4660;41.768;26.198;2024-03-29T02:03:14;29.77;;;7.40;;
9248;SDS011;4660;41.768;26.198;2024-03-29T02:05:41;31.37;;;6.93;;
9248;SDS011;4660;41.768;26.198;2024-03-29T02:08:08;33.93;;;6.33;;
9248;SDS011;4660;41.768;26.198;2024-03-29T02:10:35;30.10;;;7.60;;
9248;SDS011;4660;41.768;26.198;2024-03-29T02:13:01;26.73;;;7.13;;
9248;SDS011;4660;41.768;26.198;2024-03-29T02:15:30;39.83;;;6.93;;
9248;SDS011;4660;41.768;26.198;2024-03-29T02:17:57;35.33;;;8.07;;
9248;SDS011;4660;41.768;26.198;2024-03-29T02:20:22;40.63;;;7.67;;
9248;SDS011;4660;41.768;26.198;2024-03-29T02:23:06;38.20;;;7.20;;
9248;SDS011;4660;41.768;26.198;2024-03-29T02:25:35;31.43;;;7.27;;
9248;SDS011;4660;41.768;26.198;2024-03-29T02:28:01;38.03;;;6.90;;
9248;SDS011;4660;41.768;26.198;2024-03-29T02:30:30;37.67;;;7.73;;
9248;SDS011;4660;41.768;26.198;2024-03-29T02:32:57;30.10;;;6.63;;
9248;SDS011;4660;41.768;26.198;2024-03-29T02:35:23;26.33;;;6.73;;
9248;SDS011;4660;41.768;26.198;2024-03-29T02:37:49;34.83;;;6.77;;
9248;SDS011;4660;41.768;26.198;2024-03-29T02:40:15;44.93;;;19.20;;
9248;SDS011;4660;41.768;26.198;2024-03-29T02:42:40;59.97;;;26.77;;
9248;SDS011;4660;41.768;26.198;2024-03-29T02:45:06;46.73;;;15.50;;
9248;SDS011;4660;41.768;26.198;2024-03-29T02:47:32;38.87;;;9.93;;
9248;SDS011;4660;41.768;26.198;2024-03-29T02:49:58;36.80;;;9.87;;
9248;SDS011;4660;41.768;26.198;2024-03-29T02:52:23;47.43;;;10.27;;
9248;SDS011;4660;41.768;26.198;2024-03-29T02:54:49;29.30;;;7.63;;
9248;SDS011;4660;41.768;26.198;2024-03-29T02:57:14;32.13;;;8.33;;
9248;SDS011;4660;41.768;26.198;2024-03-29T02:59:40;30.00;;;8.03;;
9248;SDS011;4660;41.768;26.198;2024-03-29T03:02:06;36.30;;;8.53;;
9248;SDS011;4660;41.768;26.198;2024-03-29T03:04:32;34.50;;;8.90;;
9248;SDS011;4660;41.768;26.198;2024-03-29T03:06:57;36.37;;;10.07;;
9248;SDS011;4660;41.768;26.198;2024-03-29T03:09:43;61.20;;;15.17;;
9248;SDS011;4660;41.768;26.198;2024-03-29T03:12:28;42.73;;;12.70;;
9248;SDS011;4660;41.768;26.198;2024-03-29T03:14:54;48.83;;;9.23;;
9248;SDS011;4660;41.768;26.198;2024-03-29T03:17:20;48.07;;;11.00;;
9248;SDS011;4660;41.768;26.198;2024-03-29T03:19:46;30.43;;;9.47;;
9248;SDS011;4660;41.768;26.198;2024-03-29T03:22:11;51.50;;;9.90;;
9248;SDS011;4660;41.768;26.198;2024-03-29T03:24:37;31.57;;;8.03;;
9248;SDS011;4660;41.768;26.198;2024-03-29T03:27:02;36.53;;;8.93;;
9248;SDS011;4660;41.768;26.198;2024-03-29T03:29:28;36.10;;;9.03;;
9248;SDS011;4660;41.768;26.198;2024-03-29T03:31:54;28.80;;;7.83;;
9248;SDS011;4660;41.768;26.198;2024-03-29T03:34:19;26.07;;;7.67;;
9248;SDS011;4660;41.768;26.198;2024-03-29T03:36:45;32.03;;;7.07;;
9248;SDS011;4660;41.768;26.198;2024-03-29T03:39:10;36.73;;;8.47;;
9248;SDS011;4660;41.768;26.198;2024-03-29T03:41:36;34.03;;;8.47;;
9248;SDS011;4660;41.768;26.198;2024-03-29T03:44:01;27.97;;;7.83;;
9248;SDS011;4660;41.768;26.198;2024-03-29T03:46:27;31.93;;;9.93;;
9248;SDS011;4660;41.768;26.198;2024-03-29T03:48:52;45.90;;;11.73;;
9248;SDS011;4660;41.768;26.198;2024-03-29T03:51:18;41.13;;;16.77;;
9248;SDS011;4660;41.768;26.198;2024-03-29T03:53:43;55.33;;;16.23;;
9248;SDS011;4660;41.768;26.198;2024-03-29T03:56:09;49.17;;;16.07;;
9248;SDS011;4660;41.768;26.198;2024-03-29T03:58:35;45.67;;;13.17;;
9248;SDS011;4660;41.768;26.198;2024-03-29T04:01:04;43.30;;;12.33;;
9248;SDS011;4660;41.768;26.198;2024-03-29T04:03:29;34.33;;;11.07;;
9248;SDS011;4660;41.768;26.198;2024-03-29T04:05:55;39.73;;;10.37;;
9248;SDS011;4660;41.768;26.198;2024-03-29T04:08:20;40.60;;;11.03;;
9248;SDS011;4660;41.768;26.198;2024-03-29T04:10:46;40.80;;;11.03;;
9248;SDS011;4660;41.768;26.198;2024-03-29T04:13:11;34.60;;;10.17;;
9248;SDS011;4660;41.768;26.198;2024-03-29T04:15:37;36.03;;;11.43;;
9248;SDS011;4660;41.768;26.198;2024-03-29T04:18:02;33.40;;;10.97;;
9248;SDS011;4660;41.768;26.198;2024-03-29T04:20:28;29.83;;;11.07;;
9248;SDS011;4660;41.768;26.198;2024-03-29T04:22:53;35.47;;;11.10;;
9248;SDS011;4660;41.768;26.198;2024-03-29T04:25:19;35.27;;;9.30;;
9248;SDS011;4660;41.768;26.198;2024-03-29T04:27:44;30.67;;;9.33;;
9248;SDS011;4660;41.768;26.198;2024-03-29T04:30:10;28.90;;;9.40;;
9248;SDS011;4660;41.768;26.198;2024-03-29T04:32:36;41.17;;;9.10;;
9248;SDS011;4660;41.768;26.198;2024-03-29T04:35:01;37.80;;;10.27;;
9248;SDS011;4660;41.768;26.198;2024-03-29T04:37:27;29.03;;;9.37;;
9248;SDS011;4660;41.768;26.198;2024-03-29T04:39:52;30.40;;;9.07;;
9248;SDS011;4660;41.768;26.198;2024-03-29T04:42:18;29.67;;;8.93;;
9248;SDS011;4660;41.768;26.198;2024-03-29T04:44:43;28.03;;;8.30;;
9248;SDS011;4660;41.768;26.198;2024-03-29T04:47:09;24.43;;;8.13;;
9248;SDS011;4660;41.768;26.198;2024-03-29T04:49:34;29.83;;;9.17;;
9248;SDS011;4660;41.768;26.198;2024-03-29T04:52:05;35.13;;;8.73;;
9248;SDS011;4660;41.768;26.198;2024-03-29T04:54:31;25.03;;;8.43;;
9248;SDS011;4660;41.768;26.198;2024-03-29T04:56:59;25.17;;;9.33;;
9248;SDS011;4660;41.768;26.198;2024-03-29T04:59:27;37.63;;;7.93;;
9248;SDS011;4660;41.768;26.198;2024-03-29T05:01:53;28.13;;;9.03;;
9248;SDS011;4660;41.768;26.198;2024-03-29T05:04:20;39.87;;;11.27;;
9248;SDS011;4660;41.768;26.198;2024-03-29T05:06:51;38.73;;;10.20;;
9248;SDS011;4660;41.768;26.198;2024-03-29T05:09:20;25.53;;;9.17;;
9248;SDS011;4660;41.768;26.198;2024-03-29T05:11:45;33.97;;;8.23;;
9248;SDS011;4660;41.768;26.198;2024-03-29T05:14:14;37.47;;;8.80;;
9248;SDS011;4660;41.768;26.198;2024-03-29T05:16:43;26.87;;;8.20;;
9248;SDS011;4660;41.768;26.198;2024-03-29T05:19:10;41.03;;;8.43;;
9248;SDS011;4660;41.768;26.198;2024-03-29T05:21:36;29.37;;;9.00;;
9248;SDS011;4660;41.768;26.198;2024-03-29T05:24:01;40.53;;;10.37;;
9248;SDS011;4660;41.768;26.198;2024-03-29T05:26:27;34.23;;;10.50;;
9248;SDS011;4660;41.768;26.198;2024-03-29T05:28:52;34.20;;;10.10;;
9248;SDS011;4660;41.768;26.198;2024-03-29T05:31:21;34.93;;;10.43;;
9248;SDS011;4660;41.768;26.198;2024-03-29T05:33:46;34.60;;;10.77;;
9248;SDS011;4660;41.768;26.198;2024-03-29T05:36:12;31.87;;;9.47;;
9248;SDS011;4660;41.768;26.198;2024-03-29T05:38:38;26.53;;;9.90;;
9248;SDS011;4660;41.768;26.198;2024-03-29T05:41:04;39.03;;;10.20;;
9248;SDS011;4660;41.768;26.198;2024-03-29T05:43:30;31.73;;;9.83;;
9248;SDS011;4660;41.768;26.198;2024-03-29T05:45:56;32.10;;;9.20;;
9248;SDS011;4660;41.768;26.198;2024-03-29T05:48:22;45.43;;;10.20;;
9248;SDS011;4660;41.768;26.198;2024-03-29T05:50:48;30.57;;;10.03;;
9248;SDS011;4660;41.768;26.198;2024-03-29T05:53:14;28.77;;;9.17;;
9248;SDS011;4660;41.768;26.198;2024-03-29T05:55:39;33.20;;;9.50;;
9248;SDS011;4660;41.768;26.198;2024-03-29T05:58:05;32.50;;;11.37;;
9248;SDS011;4660;41.768;26.198;2024-03-29T06:00:31;34.50;;;13.87;;
9248;SDS011;4660;41.768;26.198;2024-03-29T06:03:00;43.63;;;14.73;;
9248;SDS011;4660;41.768;26.198;2024-03-29T06:05:28;35.70;;;13.97;;
9248;SDS011;4660;41.768;26.198;2024-03-29T06:07:53;32.27;;;13.50;;
9248;SDS011;4660;41.768;26.198;2024-03-29T06:10:19;37.83;;;11.93;;
9248;SDS011;4660;41.768;26.198;2024-03-29T06:12:44;33.43;;;10.00;;
9248;SDS011;4660;41.768;26.198;2024-03-29T06:15:10;31.53;;;12.67;;
9248;SDS011;4660;41.768;26.198;2024-03-29T06:17:54;41.50;;;12.27;;
9248;SDS011;4660;41.768;26.198;2024-03-29T06:20:20;29.30;;;10.30;;
9248;SDS011;4660;41.768;26.198;2024-03-29T06:22:45;46.80;;;11.40;;
9248;SDS011;4660;41.768;26.198;2024-03-29T06:25:11;36.83;;;11.73;;
9248;SDS011;4660;41.768;26.198;2024-03-29T06:27:37;37.47;;;11.20;;
9248;SDS011;4660;41.768;26.198;2024-03-29T06:30:03;37.83;;;15.57;;
9248;SDS011;4660;41.768;26.198;2024-03-29T06:32:30;38.60;;;17.87;;
9248;SDS011;4660;41.768;26.198;2024-03-29T06:34:56;37.67;;;13.37;;
9248;SDS011;4660;41.768;26.198;2024-03-29T06:37:21;32.80;;;10.23;;
9248;SDS011;4660;41.768;26.198;2024-03-29T06:39:47;28.93;;;7.87;;
9248;SDS011;4660;41.768;26.198;2024-03-29T06:42:13;35.60;;;9.10;;
9248;SDS011;4660;41.768;26.198;2024-03-29T06:44:39;35.37;;;8.50;;
9248;SDS011;4660;41.768;26.198;2024-03-29T06:47:04;42.17;;;10.40;;
9248;SDS011;4660;41.768;26.198;2024-03-29T06:49:30;35.93;;;9.70;;
9248;SDS011;4660;41.768;26.198;2024-03-29T06:51:57;35.37;;;8.87;;
9248;SDS011;4660;41.768;26.198;2024-03-29T06:54:25;39.83;;;10.20;;
9248;SDS011;4660;41.768;26.198;2024-03-29T06:56:55;31.00;;;7.80;;
9248;SDS011;4660;41.768;26.198;2024-03-29T06:59:22;25.00;;;8.30;;
9248;SDS011;4660;41.768;26.198;2024-03-29T07:01:48;26.17;;;7.70;;
9248;SDS011;4660;41.768;26.198;2024-03-29T07:04:20;26.23;;;9.50;;
9248;SDS011;4660;41.768;26.198;2024-03-29T07:06:47;31.20;;;8.60;;
9248;SDS011;4660;41.768;26.198;2024-03-29T07:09:16;29.73;;;10.23;;
9248;SDS011;4660;41.768;26.198;2024-03-29T07:11:41;29.50;;;8.20;;
9248;SDS011;4660;41.768;26.198;2024-03-29T07:14:07;24.97;;;7.30;;
9248;SDS011;4660;41.768;26.198;2024-03-29T07:16:33;27.53;;;6.80;;
9248;SDS011;4660;41.768;26.198;2024-03-29T07:19:02;32.30;;;8.17;;
9248;SDS011;4660;41.768;26.198;2024-03-29T07:21:31;16.77;;;6.75;;
9248;SDS011;4660;41.768;26.198;2024-03-29T07:23:57;24.03;;;6.53;;
9248;SDS011;4660;41.768;26.198;2024-03-29T07:26:22;29.92;;;7.38;;
9248;SDS011;4660;41.768;26.198;2024-03-29T07:28:49;22.50;;;7.32;;
9248;SDS011;4660;41.768;26.198;2024-03-29T07:31:14;37.22;;;8.32;;
9248;SDS011;4660;41.768;26.198;2024-03-29T07:33:42;35.20;;;6.85;;
9248;SDS011;4660;41.768;26.198;2024-03-29T07:36:08;27.70;;;7.03;;
9248;SDS011;4660;41.768;26.198;2024-03-29T07:38:36;20.80;;;6.65;;
9248;SDS011;4660;41.768;26.198;2024-03-29T07:41:02;31.48;;;6.78;;
9248;SDS011;4660;41.768;26.198;2024-03-29T07:43:37;30.02;;;6.40;;
9248;SDS011;4660;41.768;26.198;2024-03-29T07:46:06;33.05;;;6.90;;
9248;SDS011;4660;41.768;26.198;2024-03-29T07:48:34;23.38;;;5.40;;
9248;SDS011;4660;41.768;26.198;2024-03-29T07:51:00;17.42;;;4.45;;
9248;SDS011;4660;41.768;26.198;2024-03-29T07:53:25;31.20;;;6.35;;
9248;SDS011;4660;41.768;26.198;2024-03-29T07:55:51;23.63;;;5.25;;
9248;SDS011;4660;41.768;26.198;2024-03-29T07:58:16;24.40;;;4.65;;
9248;SDS011;4660;41.768;26.198;2024-03-29T08:00:42;18.70;;;4.53;;
9248;SDS011;4660;41.768;26.198;2024-03-29T08:03:08;18.13;;;4.95;;
9248;SDS011;4660;41.768;26.198;2024-03-29T08:05:33;13.02;;;4.47;;
9248;SDS011;4660;41.768;26.198;2024-03-29T08:07:59;15.57;;;3.35;;
9248;SDS011;4660;41.768;26.198;2024-03-29T08:10:25;15.50;;;4.18;;
9248;SDS011;4660;41.768;26.198;2024-03-29T08:12:51;17.98;;;4.05;;
9248;SDS011;4660;41.768;26.198;2024-03-29T08:15:16;20.33;;;4.25;;
9248;SDS011;4660;41.768;26.198;2024-03-29T08:17:43;17.65;;;3.78;;
9248;SDS011;4660;41.768;26.198;2024-03-29T08:20:10;17.95;;;3.67;;
9248;SDS011;4660;41.768;26.198;2024-03-29T08:22:36;16.80;;;3.97;;
9248;SDS011;4660;41.768;26.198;2024-03-29T08:25:01;19.90;;;3.92;;
9248;SDS011;4660;41.768;26.198;2024-03-29T08:27:27;20.23;;;3.78;;
9248;SDS011;4660;41.768;26.198;2024-03-29T08:29:53;14.07;;;4.38;;
9248;SDS011;4660;41.768;26.198;2024-03-29T08:32:18;13.70;;;4.72;;
9248;SDS011;4660;41.768;26.198;2024-03-29T08:34:44;11.32;;;3.47;;
9248;SDS011;4660;41.768;26.198;2024-03-29T08:37:10;15.82;;;4.63;;
9248;SDS011;4660;41.768;26.198;2024-03-29T08:39:35;14.25;;;3.45;;
9248;SDS011;4660;41.768;26.198;2024-03-29T08:42:03;11.13;;;3.78;;
9248;SDS011;4660;41.768;26.198;2024-03-29T08:44:31;9.25;;;3.42;;
9248;SDS011;4660;41.768;26.198;2024-03-29T08:46:57;17.90;;;4.22;;
9248;SDS011;4660;41.768;26.198;2024-03-29T08:49:24;11.80;;;3.05;;
9248;SDS011;4660;41.768;26.198;2024-03-29T08:51:50;10.60;;;3.42;;
9248;SDS011;4660;41.768;26.198;2024-03-29T08:54:15;13.50;;;3.38;;
9248;SDS011;4660;41.768;26.198;2024-03-29T08:56:41;14.57;;;4.03;;
9248;SDS011;4660;41.768;26.198;2024-03-29T08:59:06;16.15;;;3.92;;
9248;SDS011;4660;41.768;26.198;2024-03-29T09:01:36;11.13;;;2.95;;
9248;SDS011;4660;41.768;26.198;2024-03-29T09:04:04;11.23;;;3.22;;
9248;SDS011;4660;41.768;26.198;2024-03-29T09:06:32;12.57;;;2.97;;
9248;SDS011;4660;41.768;26.198;2024-03-29T09:08:58;15.32;;;3.05;;
9248;SDS011;4660;41.768;26.198;2024-03-29T09:11:30;17.73;;;3.80;;
9248;SDS011;4660;41.768;26.198;2024-03-29T09:13:58;11.40;;;3.13;;
9248;SDS011;4660;41.768;26.198;2024-03-29T09:16:27;12.00;;;3.10;;
9248;SDS011;4660;41.768;26.198;2024-03-29T09:18:55;7.22;;;2.22;;
9248;SDS011;4660;41.768;26.198;2024-03-29T09:21:22;10.65;;;3.20;;
9248;SDS011;4660;41.768;26.198;2024-03-29T09:23:47;9.80;;;2.63;;
9248;SDS011;4660;41.768;26.198;2024-03-29T09:26:15;8.25;;;2.72;;
9248;SDS011;4660;41.768;26.198;2024-03-29T09:28:41;9.90;;;2.70;;
9248;SDS011;4660;41.768;26.198;2024-03-29T09:31:07;15.50;;;2.97;;
9248;SDS011;4660;41.768;26.198;2024-03-29T09:33:32;7.50;;;1.98;;
9248;SDS011;4660;41.768;26.198;2024-03-29T09:35:59;7.20;;;2.38;;
9248;SDS011;4660;41.768;26.198;2024-03-29T09:38:25;9.80;;;2.20;;
9248;SDS011;4660;41.768;26.198;2024-03-29T09:40:54;8.70;;;2.47;;
9248;SDS011;4660;41.768;26.198;2024-03-29T09:43:22;6.28;;;1.80;;
9248;SDS011;4660;41.768;26.198;2024-03-29T09:45:51;10.38;;;2.40;;
9248;SDS011;4660;41.768;26.198;2024-03-29T09:48:19;4.95;;;1.50;;
9248;SDS011;4660;41.768;26.198;2024-03-29T09:50:47;8.63;;;2.03;;
9248;SDS011;4660;41.768;26.198;2024-03-29T09:53:14;6.07;;;1.92;;
9248;SDS011;4660;41.768;26.198;2024-03-29T09:55:42;5.50;;;1.63;;
9248;SDS011;4660;41.768;26.198;2024-03-29T09:58:07;8.98;;;2.20;;
9248;SDS011;4660;41.768;26.198;2024-03-29T10:00:33;4.38;;;2.38;;
9248;SDS011;4660;41.768;26.198;2024-03-29T10:03:01;8.05;;;2.25;;
9248;SDS011;4660;41.768;26.198;2024-03-29T10:05:28;7.07;;;1.88;;
9248;SDS011;4660;41.768;26.198;2024-03-29T10:07:54;4.97;;;1.98;;
9248;SDS011;4660;41.768;26.198;2024-03-29T10:10:21;5.20;;;1.92;;
9248;SDS011;4660;41.768;26.198;2024-03-29T10:12:47;3.85;;;1.60;;
9248;SDS011;4660;41.768;26.198;2024-03-29T10:15:13;4.63;;;1.50;;
9248;SDS011;4660;41.768;26.198;2024-03-29T10:17:46;3.97;;;2.00;;
9248;SDS011;4660;41.768;26.198;2024-03-29T10:20:17;5.18;;;1.88;;
9248;SDS011;4660;41.768;26.198;2024-03-29T10:22:43;5.30;;;1.83;;
9248;SDS011;4660;41.768;26.198;2024-03-29T10:25:09;4.25;;;1.40;;
9248;SDS011;4660;41.768;26.198;2024-03-29T10:27:35;7.53;;;1.58;;
9248;SDS011;4660;41.768;26.198;2024-03-29T10:30:01;6.25;;;1.60;;
9248;SDS011;4660;41.768;26.198;2024-03-29T10:32:29;6.28;;;2.20;;
9248;SDS011;4660;41.768;26.198;2024-03-29T10:34:54;5.63;;;2.17;;
9248;SDS011;4660;41.768;26.198;2024-03-29T10:37:20;4.70;;;1.50;;
9248;SDS011;4660;41.768;26.198;2024-03-29T10:39:58;7.03;;;1.70;;
9248;SDS011;4660;41.768;26.198;2024-03-29T10:42:23;4.57;;;1.58;;
9248;SDS011;4660;41.768;26.198;2024-03-29T10:44:52;5.15;;;1.55;;
9248;SDS011;4660;41.768;26.198;2024-03-29T10:47:19;5.68;;;1.88;;
9248;SDS011;4660;41.768;26.198;2024-03-29T10:49:51;2.97;;;1.55;;
9248;SDS011;4660;41.768;26.198;2024-03-29T10:52:18;5.68;;;1.60;;
9248;SDS011;4660;41.768;26.198;2024-03-29T10:54:46;1.65;;;1.10;;
9248;SDS011;4660;41.768;26.198;2024-03-29T10:57:16;6.68;;;1.85;;
9248;SDS011;4660;41.768;26.198;2024-03-29T10:59:54;3.47;;;1.35;;
9248;SDS011;4660;41.768;26.198;2024-03-29T11:02:48;3.70;;;1.52;;
9248;SDS011;4660;41.768;26.198;2024-03-29T11:05:28;6.78;;;1.58;;
9248;SDS011;4660;41.768;26.198;2024-03-29T11:07:59;4.10;;;1.20;;
9248;SDS011;4660;41.768;26.198;2024-03-29T11:10:29;2.70;;;1.40;;
9248;SDS011;4660;41.768;26.198;2024-03-29T11:15:45;6.55;;;1.80;;
9248;SDS011;4660;41.768;26.198;2024-03-29T11:18:13;7.75;;;1.73;;
9248;SDS011;4660;41.768;26.198;2024-03-29T11:20:42;5.38;;;1.58;;
9248;SDS011;4660;41.768;26.198;2024-03-29T11:23:15;4.20;;;1.20;;
9248;SDS011;4660;41.768;26.198;2024-03-29T11:25:42;2.05;;;1.45;;
9248;SDS011;4660;41.768;26.198;2024-03-29T11:28:11;3.92;;;1.48;;
9248;SDS011;4660;41.768;26.198;2024-03-29T11:30:48;4.50;;;1.48;;
9248;SDS011;4660;41.768;26.198;2024-03-29T11:33:29;2.50;;;1.20;;
9248;SDS011;4660;41.768;26.198;2024-03-29T11:35:58;5.78;;;1.58;;
9248;SDS011;4660;41.768;26.198;2024-03-29T11:38:32;3.20;;;1.85;;
9248;SDS011;4660;41.768;26.198;2024-03-29T11:41:18;4.53;;;1.70;;
9248;SDS011;4660;41.768;26.198;2024-03-29T11:43:50;8.18;;;1.95;;
9248;SDS011;4660;41.768;26.198;2024-03-29T11:46:18;5.90;;;1.67;;
9248;SDS011;4660;41.768;26.198;2024-03-29T11:48:45;4.50;;;1.77;;
9248;SDS011;4660;41.768;26.198;2024-03-29T11:51:16;2.78;;;1.60;;
9248;SDS011;4660;41.768;26.198;2024-03-29T11:53:45;4.60;;;2.15;;
9248;SDS011;4660;41.768;26.198;2024-03-29T11:56:12;8.50;;;1.88;;
9248;SDS011;4660;41.768;26.198;2024-03-29T11:58:40;8.32;;;2.58;;
9248;SDS011;4660;41.768;26.198;2024-03-29T12:01:07;6.05;;;1.73;;
9248;SDS011;4660;41.768;26.198;2024-03-29T12:03:41;5.32;;;1.90;;
9248;SDS011;4660;41.768;26.198;2024-03-29T12:06:08;11.65;;;2.17;;
9248;SDS011;4660;41.768;26.198;2024-03-29T12:08:39;5.00;;;1.70;;
9248;SDS011;4660;41.768;26.198;2024-03-29T12:11:09;8.20;;;2.10;;
9248;SDS011;4660;41.768;26.198;2024-03-29T12:13:36;4.85;;;1.83;;
9248;SDS011;4660;41.768;26.198;2024-03-29T12:16:04;3.92;;;1.95;;
9248;SDS011;4660;41.768;26.198;2024-03-29T12:18:33;3.63;;;1.65;;
9248;SDS011;4660;41.768;26.198;2024-03-29T12:21:02;5.43;;;2.30;;
9248;SDS011;4660;41.768;26.198;2024-03-29T12:23:29;4.47;;;1.73;;
9248;SDS011;4660;41.768;26.198;2024-03-29T12:25:57;6.30;;;2.00;;
9248;SDS011;4660;41.768;26.198;2024-03-29T12:28:25;6.35;;;2.00;;
9248;SDS011;4660;41.768;26.198;2024-03-29T12:30:52;2.72;;;1.55;;
9248;SDS011;4660;41.768;26.198;2024-03-29T12:33:21;6.38;;;1.30;;
9248;SDS011;4660;41.768;26.198;2024-03-29T12:35:49;5.05;;;2.08;;
9248;SDS011;4660;41.768;26.198;2024-03-29T12:38:19;6.82;;;1.77;;
9248;SDS011;4660;41.768;26.198;2024-03-29T12:40:48;6.97;;;2.00;;
9248;SDS011;4660;41.768;26.198;2024-03-29T12:43:21;9.07;;;2.00;;
9248;SDS011;4660;41.768;26.198;2024-03-29T12:45:49;5.38;;;2.20;;
9248;SDS011;4660;41.768;26.198;2024-03-29T12:48:20;9.02;;;2.60;;
9248;SDS011;4660;41.768;26.198;2024-03-29T12:50:49;9.90;;;3.28;;
9248;SDS011;4660;41.768;26.198;2024-03-29T12:53:16;5.57;;;3.05;;
9248;SDS011;4660;41.768;26.198;2024-03-29T12:55:43;68.03;;;55.58;;
9248;SDS011;4660;41.768;26.198;2024-03-29T12:58:15;10.75;;;5.93;;
9248;SDS011;4660;41.768;26.198;2024-03-29T13:00:45;14.93;;;9.07;;
9248;SDS011;4660;41.768;26.198;2024-03-29T13:03:12;8.80;;;5.68;;
9248;SDS011;4660;41.768;26.198;2024-03-29T13:05:39;36.40;;;26.83;;
9248;SDS011;4660;41.768;26.198;2024-03-29T13:08:13;3.92;;;2.13;;
9248;SDS011;4660;41.768;26.198;2024-03-29T13:10:46;6.93;;;2.83;;
9248;SDS011;4660;41.768;26.198;2024-03-29T13:13:13;4.53;;;3.55;;
9248;SDS011;4660;41.768;26.198;2024-03-29T13:15:39;4.88;;;2.20;;
9248;SDS011;4660;41.768;26.198;2024-03-29T13:18:08;8.80;;;2.60;;
9248;SDS011;4660;41.768;26.198;2024-03-29T13:20:38;7.05;;;2.20;;
9248;SDS011;4660;41.768;26.198;2024-03-29T13:23:09;5.72;;;3.95;;
9248;SDS011;4660;41.768;26.198;2024-03-29T13:25:37;9.15;;;4.07;;
9248;SDS011;4660;41.768;26.198;2024-03-29T13:28:05;10.88;;;5.57;;
9248;SDS011;4660;41.768;26.198;2024-03-29T13:30:32;13.02;;;8.07;;
9248;SDS011;4660;41.768;26.198;2024-03-29T13:32:59;7.03;;;2.25;;
9248;SDS011;4660;41.768;26.198;2024-03-29T13:35:26;5.43;;;2.88;;
9248;SDS011;4660;41.768;26.198;2024-03-29T13:37:53;11.30;;;6.45;;
9248;SDS011;4660;41.768;26.198;2024-03-29T13:40:22;5.30;;;2.95;;
9248;SDS011;4660;41.768;26.198;2024-03-29T13:42:50;5.95;;;1.73;;
9248;SDS011;4660;41.768;26.198;2024-03-29T13:45:17;6.95;;;5.22;;
9248;SDS011;4660;41.768;26.198;2024-03-29T13:47:44;9.00;;;7.35;;
9248;SDS011;4660;41.768;26.198;2024-03-29T13:50:13;9.05;;;3.05;;
9248;SDS011;4660;41.768;26.198;2024-03-29T13:52:41;9.20;;;3.50;;
9248;SDS011;4660;41.768;26.198;2024-03-29T13:55:09;6.75;;;2.38;;
9248;SDS011;4660;41.768;26.198;2024-03-29T13:57:36;7.63;;;2.53;;
9248;SDS011;4660;41.768;26.198;2024-03-29T14:00:04;5.90;;;1.83;;
9248;SDS011;4660;41.768;26.198;2024-03-29T14:02:33;62.17;;;49.80;;
9248;SDS011;4660;41.768;26.198;2024-03-29T14:05:00;11.77;;;4.05;;
9248;SDS011;4660;41.768;26.198;2024-03-29T14:07:27;5.53;;;2.60;;
9248;SDS011;4660;41.768;26.198;2024-03-29T14:09:54;5.28;;;3.22;;
9248;SDS011;4660;41.768;26.198;2024-03-29T14:12:21;12.50;;;7.30;;
9248;SDS011;4660;41.768;26.198;2024-03-29T14:14:51;7.05;;;3.50;;
9248;SDS011;4660;41.768;26.198;2024-03-29T14:17:19;12.07;;;7.93;;
9248;SDS011;4660;41.768;26.198;2024-03-29T14:19:46;12.13;;;9.18;;
9248;SDS011;4660;41.768;26.198;2024-03-29T14:22:14;41.15;;;30.92;;
9248;SDS011;4660;41.768;26.198;2024-03-29T14:24:45;11.18;;;5.97;;
9248;SDS011;4660;41.768;26.198;2024-03-29T14:27:11;6.90;;;2.10;;
9248;SDS011;4660;41.768;26.198;2024-03-29T14:29:37;4.60;;;1.88;;
9248;SDS011;4660;41.768;26.198;2024-03-29T14:32:03;8.57;;;2.65;;
9248;SDS011;4660;41.768;26.198;2024-03-29T14:34:29;6.55;;;1.65;;
9248;SDS011;4660;41.768;26.198;2024-03-29T14:37:02;6.07;;;1.67;;
9248;SDS011;4660;41.768;26.198;2024-03-29T14:39:28;6.97;;;1.80;;
9248;SDS011;4660;41.768;26.198;2024-03-29T14:41:54;3.78;;;1.83;;
9248;SDS011;4660;41.768;26.198;2024-03-29T14:44:19;6.93;;;2.13;;
9248;SDS011;4660;41.768;26.198;2024-03-29T14:46:46;3.97;;;1.42;;
9248;SDS011;4660;41.768;26.198;2024-03-29T14:49:12;8.27;;;2.22;;
9248;SDS011;4660;41.768;26.198;2024-03-29T14:51:39;4.03;;;1.70;;
9248;SDS011;4660;41.768;26.198;2024-03-29T14:54:05;7.18;;;2.15;;